sensor_id;sensor_type;location;lat;lon;timestamp;P1;durP1;ratioP1;P2;durP2;ratioP2
17606;SDS011;69222;52.242;20.980;2023-07-29T00:00:26;6.95;;;4.82;;
17606;SDS011;69222;52.242;20.980;2023-07-29T00:02:54;5.65;;;5.10;;
17606;SDS011;69222;52.242;20.980;2023-07-29T00:05:22;5.82;;;5.20;;
17606;SDS011;69222;52.242;20.980;2023-07-29T00:07:50;7.50;;;5.50;;
17606;SDS011;69222;52.242;20.980;2023-07-29T00:10:18;6.78;;;5.20;;
17606;SDS011;69222;52.242;20.980;2023-07-29T00:12:46;5.95;;;5.35;;
17606;SDS011;69222;52.242;20.980;2023-07-29T00:15:14;6.63;;;5.40;;
17606;SDS011;69222;52.242;20.980;2023-07-29T00:17:43;8.30;;;5.95;;
17606;SDS011;69222;52.242;20.980;2023-07-29T00:20:11;7.68;;;5.75;;
17606;SDS011;69222;52.242;20.980;2023-07-29T00:22:39;6.93;;;6.13;;
17606;SDS011;69222;52.242;20.980;2023-07-29T00:25:08;9.57;;;6.53;;
17606;SDS011;69222;52.242;20.980;2023-07-29T00:27:36;6.32;;;5.50;;
17606;SDS011;69222;52.242;20.980;2023-07-29T00:30:04;7.13;;;6.43;;
17606;SDS011;69222;52.242;20.980;2023-07-29T00:32:33;6.63;;;5.68;;
17606;SDS011;69222;52.242;20.980;2023-07-29T00:35:02;7.85;;;6.07;;
17606;SDS011;69222;52.242;20.980;2023-07-29T00:37:31;9.07;;;7.03;;
17606;SDS011;69222;52.242;20.980;2023-07-29T00:39:59;8.30;;;6.40;;
17606;SDS011;69222;52.242;20.980;2023-07-29T00:42:27;7.35;;;6.70;;
17606;SDS011;69222;52.242;20.980;2023-07-29T00:44:55;7.00;;;6.30;;
17606;SDS011;69222;52.242;20.980;2023-07-29T00:47:23;7.85;;;6.43;;
17606;SDS011;69222;52.242;20.980;2023-07-29T00:49:53;7.80;;;7.05;;
17606;SDS011;69222;52.242;20.980;2023-07-29T00:52:22;11.70;;;7.32;;
17606;SDS011;69222;52.242;20.980;2023-07-29T00:54:50;9.93;;;7.30;;
17606;SDS011;69222;52.242;20.980;2023-07-29T00:57:18;7.13;;;6.53;;
17606;SDS011;69222;52.242;20.980;2023-07-29T00:59:47;8.68;;;6.88;;
17606;SDS011;69222;52.242;20.980;2023-07-29T01:02:15;8.48;;;7.30;;
17606;SDS011;69222;52.242;20.980;2023-07-29T01:04:43;10.18;;;8.13;;
17606;SDS011;69222;52.242;20.980;2023-07-29T01:07:13;12.23;;;7.60;;
17606;SDS011;69222;52.242;20.980;2023-07-29T01:09:50;9.75;;;8.75;;
17606;SDS011;69222;52.242;20.980;2023-07-29T01:12:29;11.65;;;8.95;;
17606;SDS011;69222;52.242;20.980;2023-07-29T01:15:07;9.77;;;8.50;;
17606;SDS011;69222;52.242;20.980;2023-07-29T01:17:46;10.20;;;9.15;;
17606;SDS011;69222;52.242;20.980;2023-07-29T01:20:16;9.18;;;8.20;;
17606;SDS011;69222;52.242;20.980;2023-07-29T01:22:47;10.60;;;9.50;;
17606;SDS011;69222;52.242;20.980;2023-07-29T01:25:17;11.00;;;7.97;;
17606;SDS011;69222;52.242;20.980;2023-07-29T01:27:45;9.38;;;8.38;;
17606;SDS011;69222;52.242;20.980;2023-07-29T01:30:18;11.82;;;9.07;;
17606;SDS011;69222;52.242;20.980;2023-07-29T01:32:49;11.25;;;9.00;;
17606;SDS011;69222;52.242;20.980;2023-07-29T01:35:23;9.10;;;7.47;;
17606;SDS011;69222;52.242;20.980;2023-07-29T01:37:55;11.45;;;8.93;;
17606;SDS011;69222;52.242;20.980;2023-07-29T01:40:28;8.68;;;7.80;;
17606;SDS011;69222;52.242;20.980;2023-07-29T01:42:56;10.40;;;8.18;;
17606;SDS011;69222;52.242;20.980;2023-07-29T01:45:24;10.55;;;8.10;;
17606;SDS011;69222;52.242;20.980;2023-07-29T01:47:53;9.25;;;8.25;;
17606;SDS011;69222;52.242;20.980;2023-07-29T01:50:21;9.40;;;8.50;;
17606;SDS011;69222;52.242;20.980;2023-07-29T01:52:49;8.98;;;7.65;;
17606;SDS011;69222;52.242;20.980;2023-07-29T01:55:17;12.63;;;8.57;;
17606;SDS011;69222;52.242;20.980;2023-07-29T01:57:48;9.35;;;8.43;;
17606;SDS011;69222;52.242;20.980;2023-07-29T02:00:20;8.90;;;7.65;;
17606;SDS011;69222;52.242;20.980;2023-07-29T02:02:49;12.20;;;8.70;;
17606;SDS011;69222;52.242;20.980;2023-07-29T02:05:20;8.82;;;7.97;;
17606;SDS011;69222;52.242;20.980;2023-07-29T02:07:52;9.63;;;7.95;;
17606;SDS011;69222;52.242;20.980;2023-07-29T02:10:22;9.57;;;8.20;;
17606;SDS011;69222;52.242;20.980;2023-07-29T02:12:52;8.90;;;7.95;;
17606;SDS011;69222;52.242;20.980;2023-07-29T02:15:22;8.93;;;8.00;;
17606;SDS011;69222;52.242;20.980;2023-07-29T02:17:50;8.38;;;7.18;;
17606;SDS011;69222;52.242;20.980;2023-07-29T02:20:19;9.45;;;8.45;;
17606;SDS011;69222;52.242;20.980;2023-07-29T02:22:47;8.68;;;7.88;;
17606;SDS011;69222;52.242;20.980;2023-07-29T02:25:15;10.82;;;8.55;;
17606;SDS011;69222;52.242;20.980;2023-07-29T02:27:43;8.85;;;7.93;;
17606;SDS011;69222;52.242;20.980;2023-07-29T02:30:12;10.65;;;8.13;;
17606;SDS011;69222;52.242;20.980;2023-07-29T02:32:40;9.15;;;7.88;;
17606;SDS011;69222;52.242;20.980;2023-07-29T02:35:09;9.18;;;8.25;;
17606;SDS011;69222;52.242;20.980;2023-07-29T02:37:37;9.73;;;8.07;;
17606;SDS011;69222;52.242;20.980;2023-07-29T02:40:05;9.20;;;8.30;;
17606;SDS011;69222;52.242;20.980;2023-07-29T02:42:35;9.98;;;8.38;;
17606;SDS011;69222;52.242;20.980;2023-07-29T02:45:03;10.50;;;9.02;;
17606;SDS011;69222;52.242;20.980;2023-07-29T02:47:37;9.88;;;8.88;;
17606;SDS011;69222;52.242;20.980;2023-07-29T02:50:05;9.88;;;8.80;;
17606;SDS011;69222;52.242;20.980;2023-07-29T02:52:34;9.75;;;8.75;;
17606;SDS011;69222;52.242;20.980;2023-07-29T02:55:02;10.65;;;9.15;;
17606;SDS011;69222;52.242;20.980;2023-07-29T02:57:30;11.43;;;9.30;;
17606;SDS011;69222;52.242;20.980;2023-07-29T02:59:58;12.68;;;9.43;;
17606;SDS011;69222;52.242;20.980;2023-07-29T03:02:26;12.32;;;9.63;;
17606;SDS011;69222;52.242;20.980;2023-07-29T03:04:55;10.77;;;9.65;;
17606;SDS011;69222;52.242;20.980;2023-07-29T03:07:23;13.43;;;9.20;;
17606;SDS011;69222;52.242;20.980;2023-07-29T03:09:51;12.10;;;8.95;;
17606;SDS011;69222;52.242;20.980;2023-07-29T03:12:19;14.40;;;9.48;;
17606;SDS011;69222;52.242;20.980;2023-07-29T03:14:48;9.40;;;8.40;;
17606;SDS011;69222;52.242;20.980;2023-07-29T03:17:16;13.20;;;9.13;;
17606;SDS011;69222;52.242;20.980;2023-07-29T03:19:44;10.38;;;9.30;;
17606;SDS011;69222;52.242;20.980;2023-07-29T03:22:13;11.13;;;8.90;;
17606;SDS011;69222;52.242;20.980;2023-07-29T03:24:41;11.10;;;8.98;;
17606;SDS011;69222;52.242;20.980;2023-07-29T03:27:09;10.85;;;8.65;;
17606;SDS011;69222;52.242;20.980;2023-07-29T03:29:37;11.60;;;9.18;;
17606;SDS011;69222;52.242;20.980;2023-07-29T03:32:05;11.80;;;8.63;;
17606;SDS011;69222;52.242;20.980;2023-07-29T03:34:33;13.95;;;9.73;;
17606;SDS011;69222;52.242;20.980;2023-07-29T03:37:01;12.15;;;10.18;;
17606;SDS011;69222;52.242;20.980;2023-07-29T03:39:31;15.65;;;10.90;;
17606;SDS011;69222;52.242;20.980;2023-07-29T03:41:59;15.70;;;9.90;;
17606;SDS011;69222;52.242;20.980;2023-07-29T03:44:27;18.17;;;10.13;;
17606;SDS011;69222;52.242;20.980;2023-07-29T03:46:55;12.40;;;10.20;;
17606;SDS011;69222;52.242;20.980;2023-07-29T03:49:23;13.27;;;9.45;;
17606;SDS011;69222;52.242;20.980;2023-07-29T03:51:50;12.68;;;9.52;;
17606;SDS011;69222;52.242;20.980;2023-07-29T03:54:18;9.48;;;7.97;;
17606;SDS011;69222;52.242;20.980;2023-07-29T03:56:48;12.82;;;9.32;;
17606;SDS011;69222;52.242;20.980;2023-07-29T03:59:16;11.88;;;8.48;;
17606;SDS011;69222;52.242;20.980;2023-07-29T04:01:44;12.15;;;8.45;;
17606;SDS011;69222;52.242;20.980;2023-07-29T04:04:12;9.35;;;8.40;;
17606;SDS011;69222;52.242;20.980;2023-07-29T04:06:40;8.90;;;7.93;;
17606;SDS011;69222;52.242;20.980;2023-07-29T04:09:08;9.50;;;8.50;;
17606;SDS011;69222;52.242;20.980;2023-07-29T04:11:36;9.20;;;8.30;;
17606;SDS011;69222;52.242;20.980;2023-07-29T04:14:06;10.90;;;9.10;;
17606;SDS011;69222;52.242;20.980;2023-07-29T04:16:33;9.50;;;8.50;;
17606;SDS011;69222;52.242;20.980;2023-07-29T04:19:02;9.88;;;8.70;;
17606;SDS011;69222;52.242;20.980;2023-07-29T04:21:31;8.82;;;7.93;;
17606;SDS011;69222;52.242;20.980;2023-07-29T04:24:00;9.23;;;8.32;;
17606;SDS011;69222;52.242;20.980;2023-07-29T04:26:28;10.18;;;9.18;;
17606;SDS011;69222;52.242;20.980;2023-07-29T04:28:59;9.27;;;8.38;;
17606;SDS011;69222;52.242;20.980;2023-07-29T04:31:29;9.63;;;8.73;;
17606;SDS011;69222;52.242;20.980;2023-07-29T04:33:57;9.07;;;8.27;;
17606;SDS011;69222;52.242;20.980;2023-07-29T04:36:25;8.52;;;7.65;;
17606;SDS011;69222;52.242;20.980;2023-07-29T04:38:53;9.75;;;8.77;;
17606;SDS011;69222;52.242;20.980;2023-07-29T04:41:21;8.43;;;7.63;;
17606;SDS011;69222;52.242;20.980;2023-07-29T04:43:49;8.90;;;7.93;;
17606;SDS011;69222;52.242;20.980;2023-07-29T04:46:17;9.68;;;7.90;;
17606;SDS011;69222;52.242;20.980;2023-07-29T04:48:46;8.90;;;8.00;;
17606;SDS011;69222;52.242;20.980;2023-07-29T04:51:14;9.13;;;8.25;;
17606;SDS011;69222;52.242;20.980;2023-07-29T04:53:42;9.35;;;8.50;;
17606;SDS011;69222;52.242;20.980;2023-07-29T04:56:10;9.25;;;8.38;;
17606;SDS011;69222;52.242;20.980;2023-07-29T04:58:38;9.00;;;8.20;;
17606;SDS011;69222;52.242;20.980;2023-07-29T05:01:05;8.60;;;7.70;;
17606;SDS011;69222;52.242;20.980;2023-07-29T05:03:33;9.88;;;8.90;;
17606;SDS011;69222;52.242;20.980;2023-07-29T05:06:03;11.32;;;9.43;;
17606;SDS011;69222;52.242;20.980;2023-07-29T05:08:31;9.20;;;8.30;;
17606;SDS011;69222;52.242;20.980;2023-07-29T05:10:59;10.02;;;9.13;;
17606;SDS011;69222;52.242;20.980;2023-07-29T05:13:27;9.40;;;8.60;;
17606;SDS011;69222;52.242;20.980;2023-07-29T05:15:55;10.75;;;9.57;;
17606;SDS011;69222;52.242;20.980;2023-07-29T05:18:23;10.70;;;9.70;;
17606;SDS011;69222;52.242;20.980;2023-07-29T05:20:51;9.55;;;8.65;;
17606;SDS011;69222;52.242;20.980;2023-07-29T05:23:21;11.23;;;10.13;;
17606;SDS011;69222;52.242;20.980;2023-07-29T05:25:48;11.38;;;10.13;;
17606;SDS011;69222;52.242;20.980;2023-07-29T05:28:16;10.23;;;9.23;;
17606;SDS011;69222;52.242;20.980;2023-07-29T05:30:44;12.77;;;11.13;;
17606;SDS011;69222;52.242;20.980;2023-07-29T05:33:12;11.68;;;10.65;;
17606;SDS011;69222;52.242;20.980;2023-07-29T05:35:40;11.80;;;10.77;;
17606;SDS011;69222;52.242;20.980;2023-07-29T05:38:08;11.45;;;10.35;;
17606;SDS011;69222;52.242;20.980;2023-07-29T05:40:38;11.52;;;9.98;;
17606;SDS011;69222;52.242;20.980;2023-07-29T05:43:06;10.85;;;9.82;;
17606;SDS011;69222;52.242;20.980;2023-07-29T05:45:34;10.48;;;9.32;;
17606;SDS011;69222;52.242;20.980;2023-07-29T05:48:02;11.45;;;10.15;;
17606;SDS011;69222;52.242;20.980;2023-07-29T05:50:30;10.82;;;9.82;;
17606;SDS011;69222;52.242;20.980;2023-07-29T05:52:58;11.20;;;10.20;;
17606;SDS011;69222;52.242;20.980;2023-07-29T05:55:26;11.82;;;10.63;;
17606;SDS011;69222;52.242;20.980;2023-07-29T05:57:56;11.63;;;10.43;;
17606;SDS011;69222;52.242;20.980;2023-07-29T06:00:24;10.93;;;9.82;;
17606;SDS011;69222;52.242;20.980;2023-07-29T06:02:52;10.70;;;9.65;;
17606;SDS011;69222;52.242;20.980;2023-07-29T06:05:20;11.30;;;10.20;;
17606;SDS011;69222;52.242;20.980;2023-07-29T06:07:48;10.63;;;9.63;;
17606;SDS011;69222;52.242;20.980;2023-07-29T06:10:17;9.88;;;8.90;;
17606;SDS011;69222;52.242;20.980;2023-07-29T06:12:45;9.30;;;8.50;;
17606;SDS011;69222;52.242;20.980;2023-07-29T06:15:15;7.80;;;7.20;;
17606;SDS011;69222;52.242;20.980;2023-07-29T06:17:43;8.10;;;7.30;;
17606;SDS011;69222;52.242;20.980;2023-07-29T06:20:11;7.60;;;7.00;;
17606;SDS011;69222;52.242;20.980;2023-07-29T06:22:38;7.80;;;7.20;;
17606;SDS011;69222;52.242;20.980;2023-07-29T06:25:07;7.30;;;6.68;;
17606;SDS011;69222;52.242;20.980;2023-07-29T06:27:35;6.80;;;6.20;;
17606;SDS011;69222;52.242;20.980;2023-07-29T06:30:03;6.47;;;5.88;;
17606;SDS011;69222;52.242;20.980;2023-07-29T06:32:34;7.07;;;6.57;;
17606;SDS011;69222;52.242;20.980;2023-07-29T06:35:02;6.45;;;5.95;;
17606;SDS011;69222;52.242;20.980;2023-07-29T06:37:30;7.38;;;6.65;;
17606;SDS011;69222;52.242;20.980;2023-07-29T06:39:59;6.63;;;6.07;;
17606;SDS011;69222;52.242;20.980;2023-07-29T06:42:27;6.20;;;5.60;;
17606;SDS011;69222;52.242;20.980;2023-07-29T06:44:55;6.90;;;6.30;;
17606;SDS011;69222;52.242;20.980;2023-07-29T06:47:23;6.93;;;6.43;;
17606;SDS011;69222;52.242;20.980;2023-07-29T06:49:53;6.15;;;5.53;;
17606;SDS011;69222;52.242;20.980;2023-07-29T06:52:21;7.22;;;6.32;;
17606;SDS011;69222;52.242;20.980;2023-07-29T06:54:49;7.07;;;6.15;;
17606;SDS011;69222;52.242;20.980;2023-07-29T06:57:17;6.90;;;6.20;;
17606;SDS011;69222;52.242;20.980;2023-07-29T06:59:45;7.10;;;5.95;;
17606;SDS011;69222;52.242;20.980;2023-07-29T07:02:13;6.88;;;6.10;;
17606;SDS011;69222;52.242;20.980;2023-07-29T07:04:41;7.15;;;5.72;;
17606;SDS011;69222;52.242;20.980;2023-07-29T07:07:11;6.30;;;5.75;;
17606;SDS011;69222;52.242;20.980;2023-07-29T07:09:39;6.35;;;5.75;;
17606;SDS011;69222;52.242;20.980;2023-07-29T07:12:07;5.45;;;5.05;;
17606;SDS011;69222;52.242;20.980;2023-07-29T07:14:36;6.07;;;5.57;;
17606;SDS011;69222;52.242;20.980;2023-07-29T07:17:04;5.97;;;5.57;;
17606;SDS011;69222;52.242;20.980;2023-07-29T07:19:34;6.13;;;5.70;;
17606;SDS011;69222;52.242;20.980;2023-07-29T07:22:02;5.70;;;5.30;;
17606;SDS011;69222;52.242;20.980;2023-07-29T07:24:32;5.82;;;5.22;;
17606;SDS011;69222;52.242;20.980;2023-07-29T07:27:00;5.68;;;5.05;;
17606;SDS011;69222;52.242;20.980;2023-07-29T07:29:28;4.57;;;4.15;;
17606;SDS011;69222;52.242;20.980;2023-07-29T07:31:57;4.88;;;4.47;;
17606;SDS011;69222;52.242;20.980;2023-07-29T07:34:26;4.25;;;3.95;;
17606;SDS011;69222;52.242;20.980;2023-07-29T07:36:54;4.47;;;4.07;;
17606;SDS011;69222;52.242;20.980;2023-07-29T07:39:22;5.13;;;4.00;;
17606;SDS011;69222;52.242;20.980;2023-07-29T07:41:52;5.15;;;4.28;;
17606;SDS011;69222;52.242;20.980;2023-07-29T07:44:20;3.78;;;3.47;;
17606;SDS011;69222;52.242;20.980;2023-07-29T07:46:48;3.75;;;3.55;;
17606;SDS011;69222;52.242;20.980;2023-07-29T07:49:16;4.22;;;3.92;;
17606;SDS011;69222;52.242;20.980;2023-07-29T07:51:44;3.60;;;3.40;;
17606;SDS011;69222;52.242;20.980;2023-07-29T07:54:12;3.78;;;3.47;;
17606;SDS011;69222;52.242;20.980;2023-07-29T07:56:40;4.53;;;4.13;;
17606;SDS011;69222;52.242;20.980;2023-07-29T07:59:09;4.32;;;4.03;;
17606;SDS011;69222;52.242;20.980;2023-07-29T08:01:38;4.00;;;3.70;;
17606;SDS011;69222;52.242;20.980;2023-07-29T08:04:07;5.50;;;4.40;;
17606;SDS011;69222;52.242;20.980;2023-07-29T08:06:35;5.40;;;3.88;;
17606;SDS011;69222;52.242;20.980;2023-07-29T08:09:03;5.05;;;4.50;;
17606;SDS011;69222;52.242;20.980;2023-07-29T08:11:31;5.10;;;4.05;;
17606;SDS011;69222;52.242;20.980;2023-07-29T08:13:59;5.25;;;4.22;;
17606;SDS011;69222;52.242;20.980;2023-07-29T08:16:29;4.25;;;3.95;;
17606;SDS011;69222;52.242;20.980;2023-07-29T08:18:57;4.53;;;3.35;;
17606;SDS011;69222;52.242;20.980;2023-07-29T08:21:26;4.00;;;3.65;;
17606;SDS011;69222;52.242;20.980;2023-07-29T08:23:54;4.45;;;3.63;;
17606;SDS011;69222;52.242;20.980;2023-07-29T08:26:22;5.53;;;3.80;;
17606;SDS011;69222;52.242;20.980;2023-07-29T08:28:50;4.57;;;3.80;;
17606;SDS011;69222;52.242;20.980;2023-07-29T08:31:20;3.80;;;3.45;;
17606;SDS011;69222;52.242;20.980;2023-07-29T08:33:50;5.80;;;3.00;;
17606;SDS011;69222;52.242;20.980;2023-07-29T08:36:17;4.50;;;3.35;;
17606;SDS011;69222;52.242;20.980;2023-07-29T08:38:45;3.45;;;2.97;;
17606;SDS011;69222;52.242;20.980;2023-07-29T08:41:14;3.80;;;3.20;;
17606;SDS011;69222;52.242;20.980;2023-07-29T08:43:46;3.25;;;2.95;;
17606;SDS011;69222;52.242;20.980;2023-07-29T08:46:18;3.95;;;3.15;;
17606;SDS011;69222;52.242;20.980;2023-07-29T08:48:47;2.85;;;2.50;;
17606;SDS011;69222;52.242;20.980;2023-07-29T08:51:17;4.32;;;2.47;;
17606;SDS011;69222;52.242;20.980;2023-07-29T08:53:47;2.70;;;2.50;;
17606;SDS011;69222;52.242;20.980;2023-07-29T08:56:15;3.95;;;2.05;;
17606;SDS011;69222;52.242;20.980;2023-07-29T08:58:43;4.03;;;2.17;;
17606;SDS011;69222;52.242;20.980;2023-07-29T09:01:12;4.43;;;2.55;;
17606;SDS011;69222;52.242;20.980;2023-07-29T09:03:42;3.92;;;2.28;;
17606;SDS011;69222;52.242;20.980;2023-07-29T09:06:13;2.53;;;2.22;;
17606;SDS011;69222;52.242;20.980;2023-07-29T09:08:43;2.60;;;2.40;;
17606;SDS011;69222;52.242;20.980;2023-07-29T09:11:13;1.95;;;1.85;;
17606;SDS011;69222;52.242;20.980;2023-07-29T09:13:43;2.05;;;1.90;;
17606;SDS011;69222;52.242;20.980;2023-07-29T09:16:11;2.00;;;1.90;;
17606;SDS011;69222;52.242;20.980;2023-07-29T09:18:40;2.83;;;2.22;;
17606;SDS011;69222;52.242;20.980;2023-07-29T09:21:08;2.58;;;1.77;;
17606;SDS011;69222;52.242;20.980;2023-07-29T09:23:40;2.15;;;2.05;;
17606;SDS011;69222;52.242;20.980;2023-07-29T09:26:10;2.67;;;1.98;;
17606;SDS011;69222;52.242;20.980;2023-07-29T09:28:39;1.70;;;1.60;;
17606;SDS011;69222;52.242;20.980;2023-07-29T09:31:13;4.80;;;2.05;;
17606;SDS011;69222;52.242;20.980;2023-07-29T09:33:48;2.08;;;1.70;;
17606;SDS011;69222;52.242;20.980;2023-07-29T09:36:16;2.08;;;1.98;;
17606;SDS011;69222;52.242;20.980;2023-07-29T09:38:45;3.65;;;1.70;;
17606;SDS011;69222;52.242;20.980;2023-07-29T09:41:16;2.55;;;1.70;;
17606;SDS011;69222;52.242;20.980;2023-07-29T09:43:44;2.25;;;2.00;;
17606;SDS011;69222;52.242;20.980;2023-07-29T09:46:12;3.00;;;1.83;;
17606;SDS011;69222;52.242;20.980;2023-07-29T09:48:40;1.90;;;1.80;;
17606;SDS011;69222;52.242;20.980;2023-07-29T09:51:12;1.80;;;1.70;;
17606;SDS011;69222;52.242;20.980;2023-07-29T09:53:42;2.03;;;1.83;;
17606;SDS011;69222;52.242;20.980;2023-07-29T09:56:13;6.40;;;2.58;;
17606;SDS011;69222;52.242;20.980;2023-07-29T09:58:43;1.85;;;1.70;;
17606;SDS011;69222;52.242;20.980;2023-07-29T10:01:13;1.30;;;1.23;;
17606;SDS011;69222;52.242;20.980;2023-07-29T10:03:41;4.53;;;1.77;;
17606;SDS011;69222;52.242;20.980;2023-07-29T10:06:11;1.40;;;1.30;;
17606;SDS011;69222;52.242;20.980;2023-07-29T10:08:42;1.95;;;1.27;;
17606;SDS011;69222;52.242;20.980;2023-07-29T10:11:11;1.30;;;1.20;;
17606;SDS011;69222;52.242;20.980;2023-07-29T10:13:39;1.40;;;1.30;;
17606;SDS011;69222;52.242;20.980;2023-07-29T10:16:14;1.50;;;1.40;;
17606;SDS011;69222;52.242;20.980;2023-07-29T10:18:42;2.85;;;1.38;;
17606;SDS011;69222;52.242;20.980;2023-07-29T10:21:10;1.65;;;1.52;;
17606;SDS011;69222;52.242;20.980;2023-07-29T10:23:42;1.40;;;1.27;;
17606;SDS011;69222;52.242;20.980;2023-07-29T10:26:14;1.70;;;1.38;;
17606;SDS011;69222;52.242;20.980;2023-07-29T10:28:47;2.03;;;1.60;;
17606;SDS011;69222;52.242;20.980;2023-07-29T10:31:20;1.50;;;1.35;;
17606;SDS011;69222;52.242;20.980;2023-07-29T10:33:53;1.42;;;1.30;;
17606;SDS011;69222;52.242;20.980;2023-07-29T10:36:22;1.40;;;1.30;;
17606;SDS011;69222;52.242;20.980;2023-07-29T10:38:51;1.55;;;1.45;;
17606;SDS011;69222;52.242;20.980;2023-07-29T10:41:19;1.48;;;1.38;;
17606;SDS011;69222;52.242;20.980;2023-07-29T10:43:48;2.65;;;1.80;;
17606;SDS011;69222;52.242;20.980;2023-07-29T10:46:17;1.65;;;1.55;;
17606;SDS011;69222;52.242;20.980;2023-07-29T10:48:53;1.73;;;1.63;;
17606;SDS011;69222;52.242;20.980;2023-07-29T10:51:22;1.40;;;1.30;;
17606;SDS011;69222;52.242;20.980;2023-07-29T10:53:52;1.67;;;1.40;;
17606;SDS011;69222;52.242;20.980;2023-07-29T10:56:25;1.60;;;1.50;;
17606;SDS011;69222;52.242;20.980;2023-07-29T10:58:58;1.30;;;1.20;;
17606;SDS011;69222;52.242;20.980;2023-07-29T11:01:50;1.50;;;1.40;;
17606;SDS011;69222;52.242;20.980;2023-07-29T11:04:24;3.33;;;1.33;;
17606;SDS011;69222;52.242;20.980;2023-07-29T11:10:02;1.50;;;1.40;;
17606;SDS011;69222;52.242;20.980;2023-07-29T11:15:22;1.90;;;1.67;;
17606;SDS011;69222;52.242;20.980;2023-07-29T11:17:53;1.40;;;1.20;;
17606;SDS011;69222;52.242;20.980;2023-07-29T11:20:24;3.75;;;1.40;;
17606;SDS011;69222;52.242;20.980;2023-07-29T11:22:53;1.50;;;1.40;;
17606;SDS011;69222;52.242;20.980;2023-07-29T11:25:26;1.20;;;1.10;;
17606;SDS011;69222;52.242;20.980;2023-07-29T11:27:57;1.58;;;1.48;;
17606;SDS011;69222;52.242;20.980;2023-07-29T11:30:32;2.40;;;1.70;;
17606;SDS011;69222;52.242;20.980;2023-07-29T11:33:01;1.65;;;1.55;;
17606;SDS011;69222;52.242;20.980;2023-07-29T11:35:31;1.25;;;1.15;;
17606;SDS011;69222;52.242;20.980;2023-07-29T11:37:59;1.60;;;1.50;;
17606;SDS011;69222;52.242;20.980;2023-07-29T11:40:27;1.50;;;1.20;;
17606;SDS011;69222;52.242;20.980;2023-07-29T11:42:55;3.22;;;2.45;;
17606;SDS011;69222;52.242;20.980;2023-07-29T11:45:23;3.13;;;2.83;;
17606;SDS011;69222;52.242;20.980;2023-07-29T11:48:07;2.30;;;1.25;;
17606;SDS011;69222;52.242;20.980;2023-07-29T11:50:37;2.33;;;1.20;;
17606;SDS011;69222;52.242;20.980;2023-07-29T11:53:05;1.40;;;1.30;;
17606;SDS011;69222;52.242;20.980;2023-07-29T11:55:33;1.23;;;1.13;;
17606;SDS011;69222;52.242;20.980;2023-07-29T11:58:01;1.45;;;1.35;;
17606;SDS011;69222;52.242;20.980;2023-07-29T12:00:29;1.42;;;1.30;;
17606;SDS011;69222;52.242;20.980;2023-07-29T12:02:57;1.60;;;1.50;;
17606;SDS011;69222;52.242;20.980;2023-07-29T12:05:25;1.35;;;1.27;;
17606;SDS011;69222;52.242;20.980;2023-07-29T12:07:56;1.50;;;1.40;;
17606;SDS011;69222;52.242;20.980;2023-07-29T12:10:25;2.15;;;1.70;;
17606;SDS011;69222;52.242;20.980;2023-07-29T12:12:54;2.17;;;1.30;;
17606;SDS011;69222;52.242;20.980;2023-07-29T12:15:25;2.25;;;1.40;;
17606;SDS011;69222;52.242;20.980;2023-07-29T12:17:54;1.65;;;1.55;;
17606;SDS011;69222;52.242;20.980;2023-07-29T12:20:26;1.75;;;1.55;;
17606;SDS011;69222;52.242;20.980;2023-07-29T12:22:58;1.80;;;1.30;;
17606;SDS011;69222;52.242;20.980;2023-07-29T12:25:29;1.40;;;1.33;;
17606;SDS011;69222;52.242;20.980;2023-07-29T12:28:01;3.17;;;1.50;;
17606;SDS011;69222;52.242;20.980;2023-07-29T12:30:30;3.60;;;1.35;;
17606;SDS011;69222;52.242;20.980;2023-07-29T12:32:58;2.30;;;1.30;;
17606;SDS011;69222;52.242;20.980;2023-07-29T12:35:33;1.52;;;1.42;;
17606;SDS011;69222;52.242;20.980;2023-07-29T12:38:04;1.30;;;1.30;;
17606;SDS011;69222;52.242;20.980;2023-07-29T12:40:32;2.55;;;1.40;;
17606;SDS011;69222;52.242;20.980;2023-07-29T12:43:05;1.48;;;1.38;;
17606;SDS011;69222;52.242;20.980;2023-07-29T12:45:35;1.45;;;1.35;;
17606;SDS011;69222;52.242;20.980;2023-07-29T12:48:06;1.55;;;1.45;;
17606;SDS011;69222;52.242;20.980;2023-07-29T12:50:34;1.50;;;1.40;;
17606;SDS011;69222;52.242;20.980;2023-07-29T12:53:04;1.30;;;1.20;;
17606;SDS011;69222;52.242;20.980;2023-07-29T12:55:32;2.47;;;1.85;;
17606;SDS011;69222;52.242;20.980;2023-07-29T12:58:00;4.93;;;1.80;;
17606;SDS011;69222;52.242;20.980;2023-07-29T13:00:28;2.00;;;1.77;;
17606;SDS011;69222;52.242;20.980;2023-07-29T13:02:56;2.08;;;1.60;;
17606;SDS011;69222;52.242;20.980;2023-07-29T13:05:23;2.33;;;1.40;;
17606;SDS011;69222;52.242;20.980;2023-07-29T13:07:52;1.60;;;1.50;;
17606;SDS011;69222;52.242;20.980;2023-07-29T13:10:21;1.33;;;1.23;;
17606;SDS011;69222;52.242;20.980;2023-07-29T13:12:49;2.58;;;1.58;;
17606;SDS011;69222;52.242;20.980;2023-07-29T13:15:17;1.75;;;1.40;;
17606;SDS011;69222;52.242;20.980;2023-07-29T13:17:45;1.48;;;1.38;;
17606;SDS011;69222;52.242;20.980;2023-07-29T13:20:13;1.52;;;1.38;;
17606;SDS011;69222;52.242;20.980;2023-07-29T13:22:41;2.20;;;1.80;;
17606;SDS011;69222;52.242;20.980;2023-07-29T13:25:08;1.38;;;1.27;;
17606;SDS011;69222;52.242;20.980;2023-07-29T13:27:38;1.40;;;1.30;;
17606;SDS011;69222;52.242;20.980;2023-07-29T13:30:07;1.60;;;1.50;;
17606;SDS011;69222;52.242;20.980;2023-07-29T13:32:35;1.42;;;1.33;;
17606;SDS011;69222;52.242;20.980;2023-07-29T13:35:04;1.52;;;1.42;;
17606;SDS011;69222;52.242;20.980;2023-07-29T13:37:33;1.90;;;1.73;;
17606;SDS011;69222;52.242;20.980;2023-07-29T13:40:01;2.63;;;1.65;;
17606;SDS011;69222;52.242;20.980;2023-07-29T13:42:29;1.70;;;1.52;;
17606;SDS011;69222;52.242;20.980;2023-07-29T13:44:58;2.92;;;1.95;;
17606;SDS011;69222;52.242;20.980;2023-07-29T13:47:26;1.73;;;1.63;;
17606;SDS011;69222;52.242;20.980;2023-07-29T13:49:54;2.03;;;1.73;;
17606;SDS011;69222;52.242;20.980;2023-07-29T13:52:22;1.70;;;1.60;;
17606;SDS011;69222;52.242;20.980;2023-07-29T13:54:50;1.45;;;1.35;;
17606;SDS011;69222;52.242;20.980;2023-07-29T13:57:18;1.50;;;1.40;;
17606;SDS011;69222;52.242;20.980;2023-07-29T13:59:46;2.58;;;1.50;;
17606;SDS011;69222;52.242;20.980;2023-07-29T14:02:16;1.55;;;1.45;;
17606;SDS011;69222;52.242;20.980;2023-07-29T14:04:43;1.92;;;1.55;;
17606;SDS011;69222;52.242;20.980;2023-07-29T14:07:11;1.50;;;1.40;;
17606;SDS011;69222;52.242;20.980;2023-07-29T14:09:40;1.50;;;1.40;;
17606;SDS011;69222;52.242;20.980;2023-07-29T14:12:09;1.58;;;1.48;;
17606;SDS011;69222;52.242;20.980;2023-07-29T14:14:38;3.65;;;1.35;;
17606;SDS011;69222;52.242;20.980;2023-07-29T14:17:06;1.98;;;1.88;;
17606;SDS011;69222;52.242;20.980;2023-07-29T14:19:36;1.60;;;1.50;;
17606;SDS011;69222;52.242;20.980;2023-07-29T14:22:04;1.42;;;1.33;;
17606;SDS011;69222;52.242;20.980;2023-07-29T14:24:33;1.73;;;1.63;;
17606;SDS011;69222;52.242;20.980;2023-07-29T14:27:01;1.60;;;1.50;;
17606;SDS011;69222;52.242;20.980;2023-07-29T14:29:29;1.50;;;1.40;;
17606;SDS011;69222;52.242;20.980;2023-07-29T14:31:57;2.35;;;1.60;;
17606;SDS011;69222;52.242;20.980;2023-07-29T14:34:25;1.77;;;1.67;;
17606;SDS011;69222;52.242;20.980;2023-07-29T14:36:54;1.33;;;1.30;;
17606;SDS011;69222;52.242;20.980;2023-07-29T14:39:22;2.05;;;1.60;;
17606;SDS011;69222;52.242;20.980;2023-07-29T14:41:50;3.08;;;1.60;;
17606;SDS011;69222;52.242;20.980;2023-07-29T14:44:18;1.83;;;1.73;;
17606;SDS011;69222;52.242;20.980;2023-07-29T14:46:46;2.20;;;2.00;;